createdAt,value
2023-02-23T00:01:51.499Z,16.17
2023-02-23T00:04:18.736Z,18.50
2023-02-23T00:06:45.671Z,17.33
2023-02-23T00:09:22.867Z,17.03
2023-02-23T00:11:57.184Z,17.40
2023-02-23T00:14:29.092Z,16.47
2023-02-23T00:16:56.421Z,16.37
2023-02-23T00:19:24.739Z,17.87
2023-02-23T00:21:52.092Z,17.03
2023-02-23T00:24:20.424Z,17.33
2023-02-23T00:26:51.078Z,16.43
2023-02-23T00:29:21.002Z,17.33
2023-02-23T00:31:49.250Z,17.27
2023-02-23T00:34:20.978Z,16.13
2023-02-23T00:36:55.109Z,17.60
2023-02-23T00:39:26.431Z,16.83
2023-02-23T00:41:55.341Z,16.93
2023-02-23T00:44:23.698Z,16.43
2023-02-23T00:46:51.700Z,16.87
2023-02-23T00:49:20.360Z,17.30
2023-02-23T00:51:47.583Z,17.90
2023-02-23T00:54:15.852Z,15.73
2023-02-23T00:56:42.605Z,17.53
2023-02-23T00:59:10.080Z,16.70
2023-02-23T01:01:38.394Z,16.67
2023-02-23T01:04:07.106Z,17.97
2023-02-23T01:06:37.245Z,16.53
2023-02-23T01:09:11.493Z,16.80
2023-02-23T01:11:38.607Z,17.20
2023-02-23T01:14:05.211Z,18.83
2023-02-23T01:16:33.747Z,18.90
2023-02-23T01:19:03.515Z,17.67
2023-02-23T01:21:36.259Z,16.37
2023-02-23T01:24:04.160Z,16.23
2023-02-23T01:26:36.249Z,15.93
2023-02-23T01:29:08.811Z,16.03
2023-02-23T01:31:39.321Z,17.67
2023-02-23T01:34:07.131Z,18.90
2023-02-23T01:36:38.935Z,18.47
2023-02-23T01:39:08.549Z,17.70
2023-02-23T01:41:36.727Z,17.53
2023-02-23T01:44:07.903Z,18.73
2023-02-23T01:46:39.105Z,16.87
2023-02-23T01:49:10.515Z,17.77
2023-02-23T01:51:43.004Z,17.57
2023-02-23T01:54:16.036Z,18.17
2023-02-23T01:56:49.156Z,16.77
2023-02-23T01:59:17.756Z,17.17
2023-02-23T02:01:45.172Z,16.40
2023-02-23T02:04:16.806Z,17.03
2023-02-23T02:06:45.797Z,16.30
2023-02-23T02:09:19.470Z,18.10
2023-02-23T02:11:54.053Z,17.20
2023-02-23T02:14:30.762Z,17.53
2023-02-23T02:17:25.425Z,16.70
2023-02-23T02:20:14.786Z,17.70
2023-02-23T02:23:08.374Z,17.13
2023-02-23T02:26:05.141Z,16.83
2023-02-23T02:28:50.423Z,16.77
2023-02-23T02:32:01.401Z,18.50
2023-02-23T02:35:11.421Z,18.03
2023-02-23T02:37:48.563Z,17.13
2023-02-23T02:40:28.422Z,16.40
2023-02-23T02:43:13.032Z,16.03
2023-02-23T02:45:43.072Z,16.43
2023-02-23T02:48:19.615Z,15.90
2023-02-23T02:50:55.575Z,17.40
2023-02-23T02:53:55.816Z,16.07
2023-02-23T02:56:26.371Z,17.10
2023-02-23T02:58:54.704Z,17.07
2023-02-23T03:01:40.196Z,17.00
2023-02-23T03:04:55.329Z,16.90
2023-02-23T03:07:50.267Z,16.80
2023-02-23T03:10:42.599Z,16.53
2023-02-23T03:13:43.236Z,18.00
2023-02-23T03:17:08.320Z,17.50
2023-02-23T03:20:04.175Z,17.13
2023-02-23T03:22:56.561Z,16.60
2023-02-23T03:25:47.877Z,15.87
2023-02-23T03:28:48.292Z,16.83
2023-02-23T03:31:45.739Z,16.20
2023-02-23T03:34:38.616Z,16.13
2023-02-23T03:37:33.483Z,15.47
2023-02-23T03:40:26.963Z,17.90
2023-02-23T03:43:16.340Z,16.00
2023-02-23T03:46:04.258Z,16.37
2023-02-23T03:48:55.058Z,16.57
2023-02-23T03:51:43.947Z,17.50
2023-02-23T03:54:37.019Z,17.53
2023-02-23T03:57:26.907Z,16.80
2023-02-23T04:00:18.387Z,18.23
2023-02-23T04:03:08.747Z,16.70
2023-02-23T04:05:58.448Z,17.70
2023-02-23T04:08:52.123Z,19.57
2023-02-23T04:12:04.341Z,17.40
2023-02-23T04:14:41.881Z,19.53
2023-02-23T04:17:10.362Z,19.57
2023-02-23T04:19:37.210Z,19.97
2023-02-23T04:22:03.856Z,18.97
2023-02-23T04:24:30.469Z,17.50
2023-02-23T04:26:57.074Z,18.13
2023-02-23T04:29:24.120Z,19.70
2023-02-23T04:31:50.858Z,18.83
2023-02-23T04:34:17.589Z,19.30
2023-02-23T04:36:44.164Z,18.90
2023-02-23T04:39:10.781Z,18.77
2023-02-23T04:41:37.503Z,18.00
2023-02-23T04:44:04.864Z,19.37
2023-02-23T04:46:31.625Z,18.87
2023-02-23T04:48:58.273Z,19.07
2023-02-23T04:51:30.079Z,18.70
2023-02-23T04:53:56.637Z,19.63
2023-02-23T04:56:23.288Z,19.70
2023-02-23T04:58:50.400Z,19.07
2023-02-23T05:01:17.843Z,18.23
2023-02-23T05:03:44.652Z,18.40
2023-02-23T05:06:12.669Z,17.47
2023-02-23T05:08:39.417Z,19.63
2023-02-23T05:11:07.310Z,20.83
2023-02-23T05:13:34.361Z,20.50
2023-02-23T05:16:01.130Z,20.53
2023-02-23T05:18:27.811Z,18.43
2023-02-23T05:21:02.174Z,20.30
2023-02-23T05:23:28.816Z,19.97
2023-02-23T05:26:01.267Z,20.07
2023-02-23T05:28:27.924Z,20.57
2023-02-23T05:30:54.684Z,18.83
2023-02-23T05:33:21.805Z,18.80
2023-02-23T05:35:48.948Z,19.93
2023-02-23T05:38:15.622Z,19.57
2023-02-23T05:40:42.309Z,19.33
2023-02-23T05:43:08.968Z,20.23
2023-02-23T05:45:40.359Z,19.97
2023-02-23T05:48:07.793Z,20.03
2023-02-23T05:50:34.578Z,19.87
2023-02-23T05:53:01.252Z,19.43
2023-02-23T05:55:28.242Z,19.50
2023-02-23T05:57:55.436Z,19.47
2023-02-23T06:00:22.470Z,19.33
2023-02-23T06:02:52.282Z,19.17
2023-02-23T06:05:19.413Z,17.93
2023-02-23T06:07:46.876Z,18.73
2023-02-23T06:10:14.390Z,19.70
2023-02-23T06:12:41.122Z,19.53
2023-02-23T06:15:08.429Z,17.37
2023-02-23T06:17:35.844Z,18.83
2023-02-23T06:20:04.853Z,19.30
2023-02-23T06:22:31.573Z,19.37
2023-02-23T06:24:58.366Z,18.93
2023-02-23T06:27:26.217Z,19.20
2023-02-23T06:29:52.902Z,18.93
2023-02-23T06:32:19.615Z,17.97
2023-02-23T06:34:51.078Z,19.10
2023-02-23T06:37:17.819Z,18.17
2023-02-23T06:39:44.719Z,18.63
2023-02-23T06:42:11.300Z,19.77
2023-02-23T06:44:38.049Z,17.00
2023-02-23T06:47:06.060Z,17.43
2023-02-23T06:49:33.051Z,17.67
2023-02-23T06:52:00.123Z,17.70
2023-02-23T06:54:26.781Z,17.57
2023-02-23T06:56:56.594Z,16.50
2023-02-23T06:59:24.236Z,16.60
2023-02-23T07:01:51.075Z,16.73
2023-02-23T07:04:17.924Z,16.33
2023-02-23T07:06:44.638Z,16.73
2023-02-23T07:09:11.347Z,16.67
2023-02-23T07:11:38.060Z,16.67
2023-02-23T07:14:04.647Z,16.57
2023-02-23T07:16:32.121Z,15.50
2023-02-23T07:18:58.990Z,16.73
2023-02-23T07:21:25.630Z,17.43
2023-02-23T07:23:52.219Z,16.47
2023-02-23T07:26:18.867Z,16.07
2023-02-23T07:28:45.604Z,16.83
2023-02-23T07:31:12.315Z,18.07
2023-02-23T07:33:38.965Z,17.70
2023-02-23T07:36:05.882Z,15.80
2023-02-23T07:38:32.781Z,17.10
2023-02-23T07:40:59.653Z,17.33
2023-02-23T07:43:26.290Z,17.43
2023-02-23T07:45:53.005Z,17.73
2023-02-23T07:48:20.643Z,17.53
2023-02-23T07:50:47.917Z,17.43
2023-02-23T07:53:15.185Z,16.87
2023-02-23T07:55:41.847Z,17.37
2023-02-23T07:58:08.997Z,16.30
2023-02-23T08:00:36.912Z,17.33
2023-02-23T08:03:03.603Z,16.93
2023-02-23T08:05:30.273Z,18.10
2023-02-23T08:07:58.511Z,17.30
2023-02-23T08:10:25.735Z,17.90
2023-02-23T08:12:52.589Z,15.97
2023-02-23T08:15:19.332Z,16.30
2023-02-23T08:17:45.966Z,15.77
2023-02-23T08:20:12.726Z,15.97
2023-02-23T08:22:48.871Z,18.17
2023-02-23T08:25:17.409Z,16.60
2023-02-23T08:27:44.050Z,18.13
2023-02-23T08:30:11.535Z,18.20
2023-02-23T08:32:38.315Z,18.67
2023-02-23T08:35:05.630Z,20.00
2023-02-23T08:37:32.721Z,18.07
2023-02-23T08:40:00.606Z,19.70
2023-02-23T08:42:27.813Z,17.67
2023-02-23T08:44:54.564Z,20.03
2023-02-23T08:47:23.379Z,18.37
2023-02-23T08:49:51.014Z,17.00
2023-02-23T08:52:17.944Z,16.90
2023-02-23T08:54:44.591Z,14.30
2023-02-23T08:57:12.620Z,17.53
2023-02-23T08:59:41.162Z,16.47
2023-02-23T09:02:12.792Z,15.40
2023-02-23T09:04:41.888Z,14.53
2023-02-23T09:07:13.042Z,13.67
2023-02-23T09:09:39.783Z,13.30
2023-02-23T09:12:06.519Z,13.20
2023-02-23T09:14:33.451Z,12.03
2023-02-23T09:17:00.098Z,13.40
2023-02-23T09:19:27.529Z,11.30
2023-02-23T09:21:54.327Z,11.37
2023-02-23T09:24:21.723Z,11.20
2023-02-23T09:26:49.632Z,11.77
2023-02-23T09:29:16.326Z,11.13
2023-02-23T09:31:43.739Z,13.97
2023-02-23T09:34:12.583Z,10.90
2023-02-23T09:36:39.349Z,12.20
2023-02-23T09:39:05.954Z,11.50
2023-02-23T09:41:51.874Z,12.17
2023-02-23T09:44:51.240Z,11.93
2023-02-23T09:47:46.113Z,11.67
2023-02-23T09:50:22.546Z,11.77
2023-02-23T09:52:58.173Z,12.10
2023-02-23T09:55:26.420Z,10.47
2023-02-23T09:57:54.049Z,9.67
2023-02-23T10:00:27.396Z,10.37
2023-02-23T10:03:08.355Z,11.20
2023-02-23T10:05:43.873Z,10.43
2023-02-23T10:08:28.762Z,10.40
2023-02-23T10:11:02.899Z,12.63
2023-02-23T10:13:51.340Z,10.50
2023-02-23T10:16:38.550Z,12.43
2023-02-23T10:19:29.273Z,10.80
2023-02-23T10:22:03.333Z,10.30
2023-02-23T10:24:36.947Z,10.20
2023-02-23T10:27:10.284Z,16.40
2023-02-23T10:29:45.600Z,11.47
2023-02-23T10:32:22.863Z,9.43
2023-02-23T10:34:54.615Z,10.07
2023-02-23T10:37:21.604Z,10.00
2023-02-23T10:39:49.823Z,15.17
2023-02-23T10:42:21.836Z,9.83
2023-02-23T10:44:50.020Z,9.17
2023-02-23T10:47:22.365Z,8.87
2023-02-23T10:49:52.283Z,8.90
2023-02-23T10:52:27.523Z,9.60
2023-02-23T10:54:54.228Z,8.27
2023-02-23T10:57:27.796Z,8.50
2023-02-23T11:00:19.377Z,10.60
2023-02-23T11:02:47.686Z,9.63
2023-02-23T11:05:50.437Z,9.77
2023-02-23T11:08:25.069Z,11.53
2023-02-23T11:11:02.028Z,10.20
2023-02-23T11:13:36.017Z,9.27
2023-02-23T11:16:07.214Z,8.27
2023-02-23T11:18:34.019Z,8.30
2023-02-23T11:21:00.810Z,7.63
2023-02-23T11:23:35.695Z,7.67
2023-02-23T11:26:06.193Z,8.57
2023-02-23T11:28:43.297Z,12.73
2023-02-23T11:31:20.425Z,11.47
2023-02-23T11:33:48.302Z,9.33
2023-02-23T11:36:17.988Z,10.13
2023-02-23T11:38:47.320Z,9.63
2023-02-23T11:41:23.305Z,17.37
2023-02-23T11:44:02.827Z,10.97
2023-02-23T11:46:33.344Z,9.70
2023-02-23T11:49:14.695Z,8.57
2023-02-23T11:51:48.972Z,10.03
2023-02-23T11:54:27.369Z,7.27
2023-02-23T11:56:58.068Z,8.43
2023-02-23T11:59:45.175Z,7.13
2023-02-23T12:02:23.027Z,7.47
2023-02-23T12:04:53.964Z,7.80
2023-02-23T12:07:34.811Z,10.30
2023-02-23T12:10:12.734Z,8.03
2023-02-23T12:12:50.212Z,7.57
2023-02-23T12:15:48.410Z,7.53
2023-02-23T12:18:20.980Z,8.50
2023-02-23T12:20:50.646Z,7.90
2023-02-23T12:23:22.359Z,8.43
2023-02-23T12:26:00.549Z,7.33
2023-02-23T12:28:41.502Z,7.37
2023-02-23T12:31:25.971Z,7.40
2023-02-23T12:33:59.043Z,6.57
2023-02-23T12:36:35.348Z,6.77
2023-02-23T12:39:40.000Z,6.73
2023-02-23T12:42:15.674Z,5.60
2023-02-23T12:45:02.835Z,6.60
2023-02-23T12:47:37.046Z,6.37
2023-02-23T12:50:13.506Z,6.77
2023-02-23T12:52:50.953Z,6.63
2023-02-23T12:55:29.167Z,6.63
2023-02-23T12:58:08.015Z,19.13
2023-02-23T13:01:01.360Z,28.67
2023-02-23T13:03:50.005Z,27.40
2023-02-23T13:06:50.458Z,9.20
2023-02-23T13:09:51.497Z,7.50
2023-02-23T13:12:36.230Z,7.97
2023-02-23T13:15:34.362Z,6.30
2023-02-23T13:18:24.481Z,8.37
2023-02-23T13:21:39.493Z,17.60
2023-02-23T13:24:14.328Z,16.13
2023-02-23T13:27:01.732Z,10.80
2023-02-23T13:29:37.866Z,9.30
2023-02-23T13:32:09.808Z,18.07
2023-02-23T13:34:44.208Z,25.30
2023-02-23T13:37:14.811Z,8.97
2023-02-23T13:39:47.766Z,9.87
2023-02-23T13:42:40.847Z,8.40
2023-02-23T13:45:23.098Z,10.90
2023-02-23T13:47:52.884Z,13.73
2023-02-23T13:50:29.846Z,16.27
2023-02-23T13:53:04.774Z,7.70
2023-02-23T13:55:49.635Z,9.60
2023-02-23T13:58:28.862Z,7.43
2023-02-23T14:01:16.513Z,7.03
2023-02-23T14:04:04.196Z,6.77
2023-02-23T14:06:34.150Z,8.60
2023-02-23T14:09:09.612Z,7.23
2023-02-23T14:11:53.552Z,7.30
2023-02-23T14:14:32.849Z,6.33
2023-02-23T14:17:14.733Z,14.83
2023-02-23T14:19:43.137Z,7.73
2023-02-23T14:22:18.436Z,7.30
2023-02-23T14:24:45.561Z,10.20
2023-02-23T14:27:42.574Z,17.60
2023-02-23T14:30:12.235Z,8.93
2023-02-23T14:32:42.004Z,9.30
2023-02-23T14:35:33.596Z,6.50
2023-02-23T14:38:24.853Z,6.57
2023-02-23T14:40:54.637Z,5.97
2023-02-23T14:43:38.154Z,7.07
2023-02-23T14:46:13.139Z,6.90
2023-02-23T14:48:44.632Z,6.17
2023-02-23T14:51:24.850Z,5.67
2023-02-23T14:53:53.717Z,5.90
2023-02-23T14:56:24.686Z,5.93
2023-02-23T14:58:54.663Z,5.87
2023-02-23T15:01:39.517Z,6.57
2023-02-23T15:04:16.365Z,5.57
2023-02-23T15:06:46.871Z,6.63
2023-02-23T15:09:30.102Z,5.70
2023-02-23T15:11:59.240Z,5.90
2023-02-23T15:14:28.166Z,6.00
2023-02-23T15:16:56.606Z,5.30
2023-02-23T15:19:33.523Z,5.43
2023-02-23T15:22:02.057Z,5.20
2023-02-23T15:24:40.763Z,5.33
2023-02-23T15:27:16.568Z,5.07
2023-02-23T15:29:43.431Z,5.20
2023-02-23T15:32:16.807Z,5.43
2023-02-23T15:34:43.645Z,5.10
2023-02-23T15:37:20.168Z,5.37
2023-02-23T15:39:56.899Z,5.00
2023-02-23T15:42:36.280Z,5.50
2023-02-23T15:45:11.608Z,5.03
2023-02-23T15:47:38.408Z,4.90
2023-02-23T15:50:16.495Z,5.10
2023-02-23T15:52:50.307Z,4.60
2023-02-23T15:55:29.892Z,4.50
2023-02-23T15:57:59.076Z,5.40
2023-02-23T16:00:44.826Z,5.13
2023-02-23T16:03:30.561Z,4.23
2023-02-23T16:06:19.171Z,5.00
2023-02-23T16:09:22.177Z,4.63
2023-02-23T16:12:08.933Z,4.77
2023-02-23T16:14:45.053Z,4.70
2023-02-23T16:17:24.216Z,4.70
2023-02-23T16:19:51.395Z,5.13
2023-02-23T16:22:27.038Z,4.93
2023-02-23T16:25:00.102Z,4.23
2023-02-23T16:27:28.639Z,4.80
2023-02-23T16:30:04.662Z,4.83
2023-02-23T16:32:37.762Z,5.17
2023-02-23T16:35:19.642Z,4.93
2023-02-23T16:38:01.059Z,4.90
2023-02-23T16:40:28.521Z,4.80
2023-02-23T16:42:59.566Z,6.20
2023-02-23T16:45:27.251Z,5.80
2023-02-23T16:47:53.962Z,5.00
2023-02-23T16:50:24.376Z,4.87
2023-02-23T16:52:53.088Z,5.20
2023-02-23T16:55:26.000Z,4.63
2023-02-23T16:58:03.793Z,5.30
2023-02-23T17:00:33.402Z,4.63
2023-02-23T17:03:01.017Z,4.93
2023-02-23T17:05:28.718Z,4.90
2023-02-23T17:07:57.756Z,5.40
2023-02-23T17:10:33.332Z,6.37
2023-02-23T17:13:05.727Z,5.17
2023-02-23T17:15:36.556Z,32.90
2023-02-23T17:18:05.206Z,9.00
2023-02-23T17:20:32.665Z,5.67
2023-02-23T17:23:01.374Z,8.47
2023-02-23T17:25:28.719Z,9.30
2023-02-23T17:27:57.259Z,6.90
2023-02-23T17:30:25.426Z,8.03
2023-02-23T17:32:54.549Z,10.10
2023-02-23T17:35:21.991Z,5.60
2023-02-23T17:37:49.000Z,6.33
2023-02-23T17:40:28.902Z,5.83
2023-02-23T17:42:57.738Z,6.37
2023-02-23T17:45:24.846Z,7.27
2023-02-23T17:47:51.767Z,6.90
2023-02-23T17:50:22.555Z,5.87
2023-02-23T17:52:50.161Z,6.47
2023-02-23T17:55:17.765Z,5.50
2023-02-23T17:57:45.214Z,6.57
2023-02-23T18:00:13.900Z,5.17
2023-02-23T18:02:42.801Z,5.50
2023-02-23T18:05:11.299Z,6.17
2023-02-23T18:07:38.379Z,6.93
2023-02-23T18:10:06.242Z,6.07
2023-02-23T18:12:34.294Z,7.50
2023-02-23T18:15:01.359Z,7.10
2023-02-23T18:17:28.522Z,6.40
2023-02-23T18:19:55.403Z,6.40
2023-02-23T18:22:22.065Z,6.70
2023-02-23T18:24:48.679Z,5.70
2023-02-23T18:27:15.441Z,7.17
2023-02-23T18:29:42.119Z,15.47
2023-02-23T18:32:08.955Z,8.80
2023-02-23T18:34:36.334Z,8.83
2023-02-23T18:37:04.114Z,8.30
2023-02-23T18:39:32.740Z,7.53
2023-02-23T18:42:00.545Z,6.60
2023-02-23T18:44:27.566Z,7.67
2023-02-23T18:46:54.845Z,7.13
2023-02-23T18:49:23.922Z,7.17
2023-02-23T18:51:51.375Z,7.20
2023-02-23T18:54:18.590Z,7.43
2023-02-23T18:56:47.427Z,7.97
2023-02-23T18:59:16.159Z,7.60
2023-02-23T19:01:45.358Z,7.57
2023-02-23T19:04:13.176Z,10.23
2023-02-23T19:06:43.707Z,9.27
2023-02-23T19:09:12.423Z,9.63
2023-02-23T19:11:40.718Z,8.20
2023-02-23T19:14:13.393Z,10.33
2023-02-23T19:16:41.174Z,8.53
2023-02-23T19:19:08.871Z,8.33
2023-02-23T19:21:36.395Z,7.80
2023-02-23T19:24:04.856Z,8.77
2023-02-23T19:26:33.652Z,10.13
2023-02-23T19:29:00.524Z,10.70
2023-02-23T19:31:28.351Z,9.37
2023-02-23T19:33:57.032Z,8.50
2023-02-23T19:36:29.648Z,8.33
2023-02-23T19:39:05.661Z,8.47
2023-02-23T19:41:33.841Z,8.67
2023-02-23T19:44:00.951Z,9.57
2023-02-23T19:46:27.982Z,8.80
2023-02-23T19:48:56.053Z,8.37
2023-02-23T19:51:23.805Z,9.47
2023-02-23T19:53:53.623Z,9.03
2023-02-23T19:56:22.200Z,9.27
2023-02-23T19:58:49.346Z,9.73
2023-02-23T20:01:18.812Z,10.40
2023-02-23T20:03:49.453Z,8.73
2023-02-23T20:06:17.650Z,10.23
2023-02-23T20:08:45.318Z,9.73
2023-02-23T20:11:12.165Z,9.50
2023-02-23T20:13:39.154Z,8.77
2023-02-23T20:16:11.817Z,8.63
2023-02-23T20:18:40.123Z,8.80
2023-02-23T20:21:18.492Z,9.37
2023-02-23T20:23:47.220Z,10.37
2023-02-23T20:26:19.906Z,9.57
2023-02-23T20:28:46.936Z,9.23
2023-02-23T20:31:18.088Z,8.90
2023-02-23T20:33:44.927Z,9.23
2023-02-23T20:36:14.705Z,8.93
2023-02-23T20:38:42.244Z,8.63
2023-02-23T20:41:08.985Z,8.97
2023-02-23T20:43:37.619Z,8.00
2023-02-23T20:46:04.840Z,9.60
2023-02-23T20:48:34.477Z,8.43
2023-02-23T20:51:01.820Z,9.33
2023-02-23T20:53:29.826Z,10.60
2023-02-23T20:55:56.797Z,9.20
2023-02-23T20:58:24.910Z,9.53
2023-02-23T21:00:56.962Z,9.97
2023-02-23T21:03:25.258Z,9.33
2023-02-23T21:05:52.557Z,11.27
2023-02-23T21:08:19.884Z,11.30
2023-02-23T21:10:48.666Z,10.23
2023-02-23T21:13:16.633Z,10.43
2023-02-23T21:15:44.705Z,10.47
2023-02-23T21:18:11.787Z,9.90
2023-02-23T21:20:39.507Z,11.60
2023-02-23T21:23:06.377Z,9.57
2023-02-23T21:25:33.158Z,9.73
2023-02-23T21:28:02.722Z,9.80
2023-02-23T21:30:30.061Z,9.83
2023-02-23T21:32:57.794Z,10.20
2023-02-23T21:35:24.732Z,10.77
2023-02-23T21:37:51.834Z,9.73
2023-02-23T21:40:20.863Z,10.50
2023-02-23T21:42:48.084Z,10.43
2023-02-23T21:45:15.282Z,9.43
2023-02-23T21:47:44.658Z,9.80
2023-02-23T21:50:15.560Z,9.93
2023-02-23T21:52:43.884Z,9.97
2023-02-23T21:55:21.442Z,10.13
2023-02-23T21:57:49.228Z,10.33
2023-02-23T22:00:16.364Z,10.37
2023-02-23T22:02:46.510Z,9.10
2023-02-23T22:05:15.486Z,10.20
2023-02-23T22:07:48.085Z,10.53
2023-02-23T22:10:14.955Z,10.93
2023-02-23T22:12:41.761Z,11.03
2023-02-23T22:15:10.238Z,10.37
2023-02-23T22:17:38.578Z,11.03
2023-02-23T22:20:07.169Z,10.83
2023-02-23T22:22:37.112Z,10.43
2023-02-23T22:25:04.443Z,11.47
2023-02-23T22:27:31.817Z,11.17
2023-02-23T22:30:01.846Z,11.97
2023-02-23T22:32:33.375Z,11.33
2023-02-23T22:35:00.950Z,10.80
2023-02-23T22:37:31.852Z,11.87
2023-02-23T22:40:01.712Z,11.87
2023-02-23T22:42:30.307Z,13.93
2023-02-23T22:44:57.111Z,12.47
2023-02-23T22:47:24.300Z,11.33
2023-02-23T22:49:51.092Z,12.53
2023-02-23T22:52:17.775Z,13.17
2023-02-23T22:54:45.649Z,13.17
2023-02-23T22:57:13.168Z,13.50
2023-02-23T22:59:39.856Z,12.43
2023-02-23T23:02:06.725Z,13.33
2023-02-23T23:04:34.427Z,15.13
2023-02-23T23:07:01.601Z,13.97
2023-02-23T23:09:28.382Z,15.20
2023-02-23T23:11:56.599Z,14.67
2023-02-23T23:14:23.593Z,14.87
2023-02-23T23:16:50.290Z,15.83
2023-02-23T23:19:23.679Z,16.60
2023-02-23T23:21:56.132Z,16.13
2023-02-23T23:24:24.431Z,15.33
2023-02-23T23:26:55.439Z,16.33
2023-02-23T23:29:23.592Z,17.47
2023-02-23T23:31:51.639Z,17.20
2023-02-23T23:34:21.605Z,16.83
2023-02-23T23:36:49.784Z,16.90
2023-02-23T23:39:18.245Z,17.33
2023-02-23T23:41:47.804Z,16.80
2023-02-23T23:44:17.261Z,16.97
2023-02-23T23:46:45.688Z,15.63
2023-02-23T23:49:18.384Z,16.90
2023-02-23T23:51:50.159Z,17.10
2023-02-23T23:54:23.500Z,17.33
2023-02-23T23:56:50.721Z,17.37
2023-02-23T23:59:20.261Z,17.60
